createdAt,value
2023-04-26T00:00:14.035Z,5.10
2023-04-26T00:02:42.565Z,5.80
2023-04-26T00:05:11.660Z,5.88
2023-04-26T00:07:40.221Z,5.32
2023-04-26T00:10:09.579Z,6.68
2023-04-26T00:12:38.059Z,5.97
2023-04-26T00:15:09.531Z,6.05
2023-04-26T00:17:37.947Z,5.70
2023-04-26T00:20:09.786Z,7.43
2023-04-26T00:22:38.004Z,7.20
2023-04-26T00:25:07.277Z,6.13
2023-04-26T00:27:35.659Z,6.10
2023-04-26T00:30:03.997Z,7.43
2023-04-26T00:32:35.528Z,7.32
2023-04-26T00:35:06.448Z,6.88
2023-04-26T00:37:35.056Z,6.65
2023-04-26T00:40:03.332Z,5.38
2023-04-26T00:42:31.684Z,6.30
2023-04-26T00:44:59.941Z,6.97
2023-04-26T00:47:30.407Z,7.28
2023-04-26T00:50:02.241Z,8.13
2023-04-26T00:52:32.227Z,6.90
2023-04-26T00:55:00.590Z,5.28
2023-04-26T00:57:28.961Z,6.75
2023-04-26T00:59:57.256Z,6.15
2023-04-26T01:02:26.063Z,7.90
2023-04-26T01:04:54.388Z,7.03
2023-04-26T01:07:24.978Z,7.50
2023-04-26T01:09:53.878Z,7.90
2023-04-26T01:12:24.281Z,7.03
2023-04-26T01:14:53.389Z,7.70
2023-04-26T01:17:21.700Z,8.20
2023-04-26T01:19:50.438Z,7.38
2023-04-26T01:22:18.761Z,6.78
2023-04-26T01:24:51.356Z,6.30
2023-04-26T01:27:19.789Z,7.75
2023-04-26T01:29:49.115Z,8.43
2023-04-26T01:32:17.370Z,9.52
2023-04-26T01:34:45.723Z,8.75
2023-04-26T01:37:14.023Z,9.45
2023-04-26T01:39:42.212Z,11.00
2023-04-26T01:42:11.923Z,11.95
2023-04-26T01:44:40.636Z,13.25
2023-04-26T01:47:08.918Z,14.75
2023-04-26T01:49:37.347Z,14.70
2023-04-26T01:52:06.096Z,9.07
2023-04-26T01:54:34.716Z,10.60
2023-04-26T01:57:03.949Z,13.52
2023-04-26T01:59:33.658Z,10.18
2023-04-26T02:02:02.184Z,9.30
2023-04-26T02:04:30.580Z,8.90
2023-04-26T02:06:58.793Z,10.38
2023-04-26T02:09:26.959Z,8.95
2023-04-26T02:11:55.235Z,9.13
2023-04-26T02:14:27.658Z,9.82
2023-04-26T02:16:57.666Z,14.13
2023-04-26T02:19:25.937Z,8.68
2023-04-26T02:21:57.226Z,8.27
2023-04-26T02:24:25.916Z,9.32
2023-04-26T02:26:54.874Z,7.80
2023-04-26T02:29:36.271Z,8.57
2023-04-26T02:32:12.330Z,9.40
2023-04-26T02:34:40.698Z,8.27
2023-04-26T02:37:09.116Z,7.43
2023-04-26T02:39:37.320Z,7.75
2023-04-26T02:42:05.599Z,7.93
2023-04-26T02:44:34.070Z,7.20
2023-04-26T02:47:02.451Z,7.75
2023-04-26T02:49:32.262Z,6.72
2023-04-26T02:52:00.693Z,10.50
2023-04-26T02:54:29.645Z,6.78
2023-04-26T02:56:58.561Z,9.63
2023-04-26T02:59:26.886Z,7.05
2023-04-26T03:01:55.114Z,7.90
2023-04-26T03:04:23.544Z,9.02
2023-04-26T03:06:53.117Z,7.55
2023-04-26T03:09:22.269Z,12.63
2023-04-26T03:11:50.448Z,8.90
2023-04-26T03:14:18.892Z,8.93
2023-04-26T03:16:48.555Z,9.20
2023-04-26T03:19:17.021Z,8.27
2023-04-26T03:21:45.712Z,8.82
2023-04-26T03:24:15.888Z,9.02
2023-04-26T03:26:44.149Z,8.82
2023-04-26T03:29:12.610Z,8.20
2023-04-26T03:31:41.046Z,9.18
2023-04-26T03:34:09.494Z,8.55
2023-04-26T03:36:38.267Z,10.77
2023-04-26T03:39:07.572Z,8.98
2023-04-26T03:41:39.675Z,8.57
2023-04-26T03:44:10.307Z,9.48
2023-04-26T03:46:38.571Z,8.15
2023-04-26T03:49:07.198Z,9.48
2023-04-26T03:51:35.396Z,9.02
2023-04-26T03:54:03.843Z,9.07
2023-04-26T03:56:32.073Z,9.80
2023-04-26T03:59:02.482Z,8.48
2023-04-26T04:01:30.740Z,8.80
2023-04-26T04:03:59.325Z,9.65
2023-04-26T04:06:28.095Z,12.75
2023-04-26T04:08:56.349Z,9.30
2023-04-26T04:11:25.318Z,8.50
2023-04-26T04:13:53.541Z,9.70
2023-04-26T04:16:23.351Z,10.30
2023-04-26T04:18:52.320Z,8.75
2023-04-26T04:21:20.702Z,7.70
2023-04-26T04:23:49.134Z,9.88
2023-04-26T04:26:17.627Z,8.88
2023-04-26T04:28:47.324Z,7.95
2023-04-26T04:31:17.491Z,10.23
2023-04-26T04:33:47.565Z,10.40
2023-04-26T04:36:17.875Z,10.85
2023-04-26T04:38:47.359Z,8.70
2023-04-26T04:41:18.090Z,8.75
2023-04-26T04:43:46.944Z,9.73
2023-04-26T04:46:15.497Z,8.35
2023-04-26T04:48:44.511Z,10.07
2023-04-26T04:51:14.337Z,10.48
2023-04-26T04:53:42.958Z,9.93
2023-04-26T04:56:11.239Z,8.65
2023-04-26T04:58:39.577Z,8.27
2023-04-26T05:01:07.877Z,9.95
2023-04-26T05:03:52.774Z,7.22
2023-04-26T05:06:22.832Z,11.95
2023-04-26T05:08:51.032Z,9.45
2023-04-26T05:11:19.857Z,8.60
2023-04-26T05:13:49.385Z,8.55
2023-04-26T05:16:19.306Z,9.13
2023-04-26T05:18:47.848Z,10.68
2023-04-26T05:21:16.541Z,8.68
2023-04-26T05:23:47.187Z,8.50
2023-04-26T05:26:16.857Z,7.93
2023-04-26T05:28:53.861Z,7.30
2023-04-26T05:31:25.076Z,8.02
2023-04-26T05:34:11.668Z,8.73
2023-04-26T05:36:41.799Z,9.50
2023-04-26T05:39:12.471Z,12.82
2023-04-26T05:41:40.740Z,9.90
2023-04-26T05:44:09.154Z,11.82
2023-04-26T05:46:37.428Z,8.68
2023-04-26T05:49:05.748Z,8.20
2023-04-26T05:51:35.218Z,7.68
2023-04-26T05:54:03.780Z,8.27
2023-04-26T05:56:33.453Z,9.65
2023-04-26T05:59:01.765Z,8.75
2023-04-26T06:01:30.255Z,9.10
2023-04-26T06:04:00.634Z,7.82
2023-04-26T06:06:33.774Z,8.48
2023-04-26T06:09:01.949Z,7.72
2023-04-26T06:11:31.121Z,7.93
2023-04-26T06:14:00.800Z,8.65
2023-04-26T06:16:29.206Z,11.65
2023-04-26T06:18:57.466Z,8.70
2023-04-26T06:21:26.486Z,7.40
2023-04-26T06:23:55.165Z,7.10
2023-04-26T06:26:26.856Z,10.57
2023-04-26T06:28:55.682Z,8.15
2023-04-26T06:31:25.621Z,8.43
2023-04-26T06:33:56.162Z,8.30
2023-04-26T06:36:24.434Z,7.68
2023-04-26T06:38:52.936Z,9.15
2023-04-26T06:41:22.189Z,7.53
2023-04-26T06:43:50.990Z,10.68
2023-04-26T06:46:21.906Z,7.82
2023-04-26T06:48:56.414Z,7.85
2023-04-26T06:51:26.978Z,8.48
2023-04-26T06:53:55.399Z,8.30
2023-04-26T06:56:23.697Z,8.80
2023-04-26T06:59:02.265Z,8.82
2023-04-26T07:01:33.866Z,8.27
2023-04-26T07:04:04.990Z,7.95
2023-04-26T07:06:33.483Z,7.93
2023-04-26T07:09:02.922Z,8.73
2023-04-26T07:11:31.221Z,8.38
2023-04-26T07:13:59.516Z,7.82
2023-04-26T07:16:28.545Z,8.57
2023-04-26T07:18:58.484Z,9.38
2023-04-26T07:21:28.274Z,8.77
2023-04-26T07:23:56.937Z,9.40
2023-04-26T07:26:26.656Z,8.68
2023-04-26T07:28:55.719Z,8.77
2023-04-26T07:31:24.031Z,7.95
2023-04-26T07:33:52.714Z,7.60
2023-04-26T07:36:23.735Z,8.60
2023-04-26T07:38:54.743Z,7.85
2023-04-26T07:41:23.008Z,7.80
2023-04-26T07:43:51.631Z,9.30
2023-04-26T07:46:20.003Z,8.30
2023-04-26T07:48:48.298Z,8.25
2023-04-26T07:51:16.549Z,6.28
2023-04-26T07:53:45.033Z,7.90
2023-04-26T07:56:15.455Z,8.57
2023-04-26T07:58:43.652Z,8.13
2023-04-26T08:01:13.388Z,8.38
2023-04-26T08:03:43.810Z,7.82
2023-04-26T08:06:12.320Z,8.88
2023-04-26T08:08:44.923Z,9.90
2023-04-26T08:11:14.773Z,8.95
2023-04-26T08:13:44.049Z,10.50
2023-04-26T08:16:12.362Z,8.85
2023-04-26T08:18:40.778Z,9.02
2023-04-26T08:21:09.142Z,10.63
2023-04-26T08:23:37.923Z,9.10
2023-04-26T08:26:06.530Z,8.90
2023-04-26T08:28:36.712Z,9.02
2023-04-26T08:31:05.086Z,8.90
2023-04-26T08:33:33.463Z,7.43
2023-04-26T08:36:02.401Z,7.50
2023-04-26T08:38:30.948Z,9.50
2023-04-26T08:41:02.035Z,7.63
2023-04-26T08:43:30.941Z,6.70
2023-04-26T08:46:02.523Z,6.50
2023-04-26T08:48:37.374Z,6.47
2023-04-26T08:51:08.140Z,6.10
2023-04-26T08:53:38.189Z,6.77
2023-04-26T08:56:08.238Z,5.70
2023-04-26T08:58:36.590Z,6.50
2023-04-26T09:01:07.308Z,6.93
2023-04-26T09:03:35.802Z,5.77
2023-04-26T09:06:04.994Z,6.60
2023-04-26T09:08:36.849Z,8.83
2023-04-26T09:11:05.050Z,6.80
2023-04-26T09:13:33.259Z,5.43
2023-04-26T09:16:03.500Z,5.23
2023-04-26T09:18:34.758Z,5.30
2023-04-26T09:21:06.135Z,5.40
2023-04-26T09:23:34.694Z,5.10
2023-04-26T09:26:20.582Z,4.67
2023-04-26T09:28:49.417Z,5.20
2023-04-26T09:31:38.841Z,4.95
2023-04-26T09:34:09.143Z,4.90
2023-04-26T09:36:53.323Z,4.80
2023-04-26T09:39:32.748Z,4.10
2023-04-26T09:42:01.972Z,4.95
2023-04-26T09:44:32.267Z,4.50
2023-04-26T09:47:01.977Z,4.83
2023-04-26T09:49:33.828Z,4.70
2023-04-26T09:52:06.951Z,4.60
2023-04-26T09:54:44.232Z,3.70
2023-04-26T09:57:13.011Z,4.93
2023-04-26T09:59:46.263Z,4.00
2023-04-26T10:02:20.791Z,4.07
2023-04-26T10:04:52.784Z,3.93
2023-04-26T10:07:22.852Z,5.00
2023-04-26T10:09:51.996Z,3.20
2023-04-26T10:12:21.250Z,3.50
2023-04-26T10:14:50.812Z,3.30
2023-04-26T10:17:20.811Z,2.67
2023-04-26T10:19:56.502Z,3.33
2023-04-26T10:22:27.141Z,3.90
2023-04-26T10:24:56.197Z,3.83
2023-04-26T10:27:52.933Z,3.33
2023-04-26T10:30:23.156Z,3.33
2023-04-26T10:33:19.090Z,4.00
2023-04-26T10:36:13.101Z,3.33
2023-04-26T10:38:44.235Z,2.90
2023-04-26T10:41:40.297Z,3.33
2023-04-26T10:44:41.194Z,3.83
2023-04-26T10:47:23.137Z,3.27
2023-04-26T10:49:52.046Z,2.57
2023-04-26T10:52:23.221Z,2.60
2023-04-26T10:54:57.117Z,2.40
2023-04-26T10:57:46.896Z,2.83
2023-04-26T11:02:56.475Z,3.17
2023-04-26T11:05:48.797Z,3.30
2023-04-26T11:08:19.994Z,2.23
2023-04-26T11:10:53.415Z,2.97
2023-04-26T11:13:21.837Z,3.60
2023-04-26T11:15:54.869Z,2.67
2023-04-26T11:18:23.779Z,3.00
2023-04-26T11:20:52.289Z,3.07
2023-04-26T11:23:22.218Z,2.63
2023-04-26T11:25:50.590Z,4.10
2023-04-26T11:28:20.405Z,3.80
2023-04-26T11:30:50.427Z,2.50
2023-04-26T11:33:19.911Z,9.13
2023-04-26T11:35:48.819Z,3.00
2023-04-26T11:38:17.702Z,3.80
2023-04-26T11:40:54.828Z,3.20
2023-04-26T11:43:23.044Z,3.20
2023-04-26T11:45:51.263Z,4.50
2023-04-26T11:48:19.792Z,3.67
2023-04-26T11:50:48.220Z,4.03
2023-04-26T11:53:17.410Z,6.17
2023-04-26T11:55:47.814Z,3.53
2023-04-26T11:58:16.402Z,2.90
2023-04-26T12:00:57.680Z,3.50
2023-04-26T12:03:30.902Z,3.73
2023-04-26T12:05:59.280Z,3.30
2023-04-26T12:08:28.230Z,3.17
2023-04-26T12:11:01.631Z,3.03
2023-04-26T12:13:30.346Z,4.00
2023-04-26T12:15:58.594Z,4.33
2023-04-26T12:18:32.479Z,3.10
2023-04-26T12:21:01.767Z,3.70
2023-04-26T12:23:39.271Z,2.90
2023-04-26T12:26:11.199Z,3.50
2023-04-26T12:28:39.692Z,2.70
2023-04-26T12:31:08.335Z,2.77
2023-04-26T12:33:37.151Z,3.60
2023-04-26T12:36:09.916Z,2.97
2023-04-26T12:38:38.561Z,3.30
2023-04-26T12:41:08.304Z,3.17
2023-04-26T12:43:36.825Z,3.40
2023-04-26T12:46:05.515Z,3.40
2023-04-26T12:48:33.903Z,3.80
2023-04-26T12:51:02.635Z,3.37
2023-04-26T12:53:30.928Z,3.60
2023-04-26T12:55:59.680Z,3.67
2023-04-26T12:58:29.780Z,3.30
2023-04-26T13:00:58.178Z,2.53
2023-04-26T13:03:27.066Z,3.50
2023-04-26T13:05:56.128Z,3.93
2023-04-26T13:08:24.397Z,3.90
2023-04-26T13:10:52.741Z,4.10
2023-04-26T13:13:26.320Z,4.30
2023-04-26T13:16:02.300Z,3.70
2023-04-26T13:18:30.598Z,5.17
2023-04-26T13:20:58.841Z,3.20
2023-04-26T13:23:27.308Z,3.63
2023-04-26T13:25:55.477Z,3.73
2023-04-26T13:28:23.730Z,3.77
2023-04-26T13:30:52.567Z,4.17
2023-04-26T13:33:22.288Z,3.93
2023-04-26T13:35:50.617Z,3.83
2023-04-26T13:38:18.890Z,4.87
2023-04-26T13:40:47.285Z,5.27
2023-04-26T13:43:15.509Z,4.80
2023-04-26T13:45:44.232Z,5.50
2023-04-26T13:48:12.680Z,4.80
2023-04-26T13:50:42.334Z,5.30
2023-04-26T13:53:10.587Z,5.13
2023-04-26T13:55:38.769Z,5.27
2023-04-26T13:58:07.300Z,5.30
2023-04-26T14:00:35.655Z,5.67
2023-04-26T14:03:04.166Z,6.83
2023-04-26T14:05:32.525Z,5.73
2023-04-26T14:08:02.536Z,6.10
2023-04-26T14:10:30.919Z,7.00
2023-04-26T14:12:59.194Z,6.50
2023-04-26T14:15:27.330Z,6.40
2023-04-26T14:17:56.136Z,7.22
2023-04-26T14:20:24.381Z,6.93
2023-04-26T14:22:52.671Z,5.65
2023-04-26T14:25:22.233Z,6.18
2023-04-26T14:27:52.298Z,6.40
2023-04-26T14:30:22.102Z,7.78
2023-04-26T14:32:50.389Z,7.80
2023-04-26T14:35:19.967Z,7.88
2023-04-26T14:37:48.181Z,8.70
2023-04-26T14:40:16.395Z,7.57
2023-04-26T14:42:46.739Z,8.45
2023-04-26T14:45:15.097Z,7.90
2023-04-26T14:47:43.369Z,7.22
2023-04-26T14:50:13.975Z,7.55
2023-04-26T14:52:42.170Z,7.80
2023-04-26T14:55:10.863Z,8.35
2023-04-26T14:57:42.061Z,8.43
2023-04-26T15:00:15.592Z,8.70
2023-04-26T15:02:44.501Z,8.68
2023-04-26T15:05:13.249Z,8.90
2023-04-26T15:07:41.672Z,8.90
2023-04-26T15:10:11.294Z,8.85
2023-04-26T15:12:39.722Z,10.38
2023-04-26T15:15:09.110Z,9.93
2023-04-26T15:17:38.748Z,9.57
2023-04-26T15:20:09.286Z,8.65
2023-04-26T15:22:39.014Z,9.55
2023-04-26T15:25:08.836Z,10.10
2023-04-26T15:27:37.240Z,8.98
2023-04-26T15:30:06.608Z,9.55
2023-04-26T15:32:35.048Z,9.50
2023-04-26T15:35:05.502Z,11.90
2023-04-26T15:37:33.838Z,9.63
2023-04-26T15:40:02.133Z,10.90
2023-04-26T15:42:30.378Z,9.27
2023-04-26T15:44:59.201Z,10.05
2023-04-26T15:47:27.496Z,10.65
2023-04-26T15:49:55.842Z,10.15
2023-04-26T15:52:25.490Z,9.15
2023-04-26T15:54:53.796Z,10.25
2023-04-26T15:57:22.036Z,9.68
2023-04-26T15:59:51.115Z,10.43
2023-04-26T16:02:19.427Z,10.30
2023-04-26T16:04:47.864Z,12.23
2023-04-26T16:07:16.744Z,10.70
2023-04-26T16:09:46.613Z,12.73
2023-04-26T16:12:14.987Z,9.77
2023-04-26T16:14:43.196Z,11.40
2023-04-26T16:17:11.537Z,11.27
2023-04-26T16:19:39.724Z,10.20
2023-04-26T16:22:07.986Z,10.38
2023-04-26T16:24:36.410Z,10.50
2023-04-26T16:27:06.151Z,10.32
2023-04-26T16:29:34.350Z,10.90
2023-04-26T16:32:03.142Z,11.23
2023-04-26T16:34:31.579Z,11.38
2023-04-26T16:36:59.827Z,11.48
2023-04-26T16:39:28.657Z,12.40
2023-04-26T16:41:57.583Z,11.65
2023-04-26T16:44:27.363Z,10.63
2023-04-26T16:46:56.080Z,11.55
2023-04-26T16:49:24.632Z,11.02
2023-04-26T16:51:56.425Z,10.43
2023-04-26T16:54:24.626Z,10.73
2023-04-26T16:56:52.982Z,10.88
2023-04-26T16:59:21.150Z,11.43
2023-04-26T17:01:50.904Z,11.70
2023-04-26T17:04:19.385Z,10.80
2023-04-26T17:06:47.695Z,11.18
2023-04-26T17:09:16.025Z,12.02
2023-04-26T17:11:44.905Z,11.70
2023-04-26T17:14:13.332Z,11.70
2023-04-26T17:16:41.600Z,10.45
2023-04-26T17:19:11.226Z,14.30
2023-04-26T17:21:39.534Z,12.55
2023-04-26T17:24:08.573Z,12.70
2023-04-26T17:26:36.890Z,12.98
2023-04-26T17:29:05.100Z,12.20
2023-04-26T17:31:33.482Z,13.13
2023-04-26T17:34:04.005Z,12.48
2023-04-26T17:36:34.490Z,12.25
2023-04-26T17:39:02.669Z,12.35
2023-04-26T17:41:30.865Z,10.90
2023-04-26T17:43:59.041Z,13.60
2023-04-26T17:46:27.522Z,11.25
2023-04-26T17:48:56.562Z,10.50
2023-04-26T17:51:24.954Z,10.65
2023-04-26T17:53:54.592Z,11.13
2023-04-26T17:56:22.986Z,11.93
2023-04-26T17:58:51.217Z,10.30
2023-04-26T18:01:20.138Z,10.93
2023-04-26T18:03:49.465Z,11.30
2023-04-26T18:06:19.199Z,10.85
2023-04-26T18:08:48.120Z,10.43
2023-04-26T18:11:19.813Z,10.52
2023-04-26T18:13:49.198Z,10.25
2023-04-26T18:16:17.864Z,11.10
2023-04-26T18:18:46.157Z,10.80
2023-04-26T18:21:14.443Z,12.00
2023-04-26T18:23:42.689Z,10.50
2023-04-26T18:26:10.957Z,11.40
2023-04-26T18:28:40.785Z,11.25
2023-04-26T18:31:09.270Z,11.00
2023-04-26T18:33:37.614Z,11.15
2023-04-26T18:36:06.232Z,11.15
2023-04-26T18:38:34.750Z,9.55
2023-04-26T18:41:03.402Z,10.20
2023-04-26T18:43:31.619Z,9.18
2023-04-26T18:46:01.174Z,9.65
2023-04-26T18:48:29.478Z,9.07
2023-04-26T18:50:57.729Z,8.95
2023-04-26T18:53:26.045Z,8.50
2023-04-26T18:55:54.437Z,9.25
2023-04-26T18:58:22.723Z,10.02
2023-04-26T19:00:51.069Z,8.40
2023-04-26T19:03:21.446Z,11.63
2023-04-26T19:05:50.145Z,16.45
2023-04-26T19:08:19.382Z,11.00
2023-04-26T19:10:47.613Z,9.13
2023-04-26T19:13:16.030Z,9.73
2023-04-26T19:15:44.256Z,9.43
2023-04-26T19:18:12.528Z,8.70
2023-04-26T19:20:42.206Z,8.95
2023-04-26T19:23:10.418Z,11.85
2023-04-26T19:25:38.596Z,9.48
2023-04-26T19:28:06.901Z,7.72
2023-04-26T19:30:35.083Z,9.02
2023-04-26T19:33:03.744Z,8.35
2023-04-26T19:35:31.986Z,8.32
2023-04-26T19:38:01.641Z,9.30
2023-04-26T19:40:29.934Z,8.88
2023-04-26T19:42:58.302Z,8.85
2023-04-26T19:45:26.547Z,8.80
2023-04-26T19:47:54.914Z,8.25
2023-04-26T19:50:23.180Z,8.60
2023-04-26T19:52:52.109Z,8.57
2023-04-26T19:55:22.101Z,8.05
2023-04-26T19:57:52.160Z,8.30
2023-04-26T20:00:20.446Z,8.48
2023-04-26T20:02:49.708Z,9.02
2023-04-26T20:05:18.121Z,11.77
2023-04-26T20:07:46.457Z,9.43
2023-04-26T20:10:14.696Z,8.15
2023-04-26T20:12:44.372Z,12.23
2023-04-26T20:15:15.101Z,9.50
2023-04-26T20:17:43.753Z,8.20
2023-04-26T20:20:13.328Z,9.35
2023-04-26T20:22:42.136Z,8.95
2023-04-26T20:25:10.610Z,8.20
2023-04-26T20:27:39.164Z,8.35
2023-04-26T20:30:10.334Z,8.82
2023-04-26T20:32:38.757Z,9.88
2023-04-26T20:35:08.432Z,7.60
2023-04-26T20:37:36.960Z,8.95
2023-04-26T20:40:06.100Z,8.90
2023-04-26T20:42:34.509Z,10.93
2023-04-26T20:45:02.984Z,8.60
2023-04-26T20:47:33.614Z,8.20
2023-04-26T20:50:01.919Z,7.68
2023-04-26T20:52:30.181Z,6.55
2023-04-26T20:54:58.416Z,7.65
2023-04-26T20:57:27.009Z,9.13
2023-04-26T20:59:55.206Z,7.60
2023-04-26T21:02:23.610Z,11.55
2023-04-26T21:04:53.706Z,7.35
2023-04-26T21:07:22.182Z,7.22
2023-04-26T21:09:50.487Z,7.35
2023-04-26T21:12:18.703Z,8.07
2023-04-26T21:14:47.949Z,8.98
2023-04-26T21:17:16.437Z,10.70
2023-04-26T21:19:44.748Z,6.68
2023-04-26T21:22:14.349Z,8.60
2023-04-26T21:24:42.664Z,7.60
2023-04-26T21:27:11.297Z,7.57
2023-04-26T21:29:39.525Z,7.82
2023-04-26T21:32:07.774Z,8.98
2023-04-26T21:34:36.567Z,6.90
2023-04-26T21:37:04.793Z,6.75
2023-04-26T21:39:34.292Z,6.75
2023-04-26T21:42:03.423Z,7.20
2023-04-26T21:44:31.626Z,6.18
2023-04-26T21:46:59.962Z,5.88
2023-04-26T21:49:28.357Z,6.40
2023-04-26T21:51:56.559Z,7.18
2023-04-26T21:54:24.698Z,7.15
2023-04-26T21:56:54.331Z,6.80
2023-04-26T21:59:22.431Z,6.07
2023-04-26T22:01:51.089Z,7.65
2023-04-26T22:04:19.415Z,6.85
2023-04-26T22:06:47.737Z,8.00
2023-04-26T22:09:15.953Z,6.78
2023-04-26T22:11:44.290Z,6.07
2023-04-26T22:14:13.911Z,6.07
2023-04-26T22:16:42.678Z,6.15
2023-04-26T22:19:11.170Z,5.85
2023-04-26T22:21:39.554Z,7.35
2023-04-26T22:24:08.618Z,6.05
2023-04-26T22:26:36.981Z,5.78
2023-04-26T22:29:05.142Z,8.95
2023-04-26T22:31:34.828Z,7.70
2023-04-26T22:34:03.034Z,7.43
2023-04-26T22:36:31.249Z,7.25
2023-04-26T22:39:00.155Z,7.72
2023-04-26T22:41:28.525Z,6.25
2023-04-26T22:43:56.865Z,5.88
2023-04-26T22:46:25.236Z,7.35
2023-04-26T22:48:54.910Z,7.40
2023-04-26T22:51:23.177Z,5.00
2023-04-26T22:53:51.436Z,9.00
2023-04-26T22:56:19.700Z,5.38
2023-04-26T22:58:48.521Z,5.80
2023-04-26T23:01:16.698Z,4.65
2023-04-26T23:03:44.994Z,6.68
2023-04-26T23:06:14.614Z,4.78
2023-04-26T23:08:42.903Z,6.75
2023-04-26T23:11:11.150Z,4.47
2023-04-26T23:13:39.369Z,6.45
2023-04-26T23:16:08.697Z,5.53
2023-04-26T23:18:37.210Z,4.80
2023-04-26T23:21:05.770Z,9.48
2023-04-26T23:23:35.602Z,5.88
2023-04-26T23:26:07.723Z,10.77
2023-04-26T23:28:36.609Z,4.82
2023-04-26T23:31:04.772Z,6.57
2023-04-26T23:33:32.974Z,5.60
2023-04-26T23:36:01.104Z,7.05
2023-04-26T23:38:29.344Z,11.23
2023-04-26T23:40:58.833Z,7.65
2023-04-26T23:43:27.074Z,9.02
2023-04-26T23:45:55.378Z,7.60
2023-04-26T23:48:23.625Z,8.35
2023-04-26T23:50:51.813Z,9.25
2023-04-26T23:53:20.003Z,5.88
2023-04-26T23:55:48.457Z,5.68
2023-04-26T23:58:18.062Z,4.45
